Time;durP1;ratioP1;P1;durP2;ratioP2;P2;SDS_P1;SDS_P2;PMS_P1;PMS_P2;Temp;Humidity;BMP_temperature;BMP_pressure;BME280_temperature;BME280_humidity;BME280_pressure;Samples;Min_cycle;Max_cycle;Signal;HPM_P1;HPM_P2
2022/04/01 00:01:03;;;;;;;10.20;6.03;;;;;;;3.08;100.00;96474.94;5092383;28;20089;-54
2022/04/01 00:03:48;;;;;;;11.18;6.50;;;;;;;3.05;100.00;96471.78;5090652;28;20045;-50
2022/04/01 00:06:33;;;;;;;10.50;6.63;;;;;;;2.99;100.00;96464.50;5092369;28;20509;-50
2022/04/01 00:09:18;;;;;;;10.57;6.68;;;;;;;3.00;100.00;96466.13;5087023;28;20449;-49
2022/04/01 00:12:07;;;;;;;10.27;6.40;;;;;;;3.26;100.00;96471.13;5091171;28;20048;-52
2022/04/01 00:14:52;;;;;;;10.40;5.85;;;;;;;3.28;100.00;96471.81;5091750;28;20499;-53
2022/04/01 00:17:37;;;;;;;8.80;5.53;;;;;;;3.29;100.00;96476.88;5092259;28;20049;-50
2022/04/01 00:20:22;;;;;;;9.85;6.13;;;;;;;3.03;100.00;96476.25;5091777;28;20041;-50
2022/04/01 00:23:06;;;;;;;7.10;4.63;;;;;;;3.41;100.00;96487.25;5091759;28;20044;-50
2022/04/01 00:25:51;;;;;;;10.32;6.35;;;;;;;3.05;100.00;96482.13;5092296;28;20343;-53
2022/04/01 00:28:36;;;;;;;11.20;5.82;;;;;;;3.08;100.00;96481.91;5091933;28;20051;-50
2022/04/01 00:31:21;;;;;;;12.85;6.88;;;;;;;3.08;100.00;96481.91;5091652;28;20071;-51
2022/04/01 00:34:18;;;;;;;6.43;4.50;;;;;;;2.88;100.00;96479.03;5090403;28;20044;-51
2022/04/01 00:37:03;;;;;;;11.23;6.72;;;;;;;2.97;100.00;96476.69;5091916;28;20059;-53
2022/04/01 00:39:48;;;;;;;10.88;7.35;;;;;;;2.83;100.00;96475.94;5077063;28;20395;-50
2022/04/01 00:42:33;;;;;;;13.13;7.78;;;;;;;2.94;100.00;96470.81;5090617;28;20127;-52
2022/04/01 00:45:17;;;;;;;9.98;6.35;;;;;;;3.03;100.00;96469.31;5090486;28;20040;-48
2022/04/01 00:48:03;;;;;;;9.48;6.70;;;;;;;3.01;100.00;96472.94;5091531;28;20479;-47
2022/04/01 00:50:48;;;;;;;8.82;5.85;;;;;;;2.70;100.00;96473.44;5093087;28;20319;-51
2022/04/01 00:53:33;;;;;;;10.57;6.38;;;;;;;2.81;100.00;96470.88;5095248;28;20098;-48
2022/04/01 00:56:17;;;;;;;9.65;5.68;;;;;;;3.07;100.00;96478.47;5065731;28;20441;-49
2022/04/01 00:59:06;;;;;;;10.48;6.53;;;;;;;2.90;100.00;96484.09;5095398;28;20039;-53
2022/04/01 01:01:51;;;;;;;9.82;6.10;;;;;;;2.80;100.00;96489.09;5079639;28;20093;-50
2022/04/01 01:04:38;;;;;;;8.98;6.05;;;;;;;2.83;100.00;96497.47;5094990;28;20447;-51
2022/04/01 01:07:23;;;;;;;10.00;6.55;;;;;;;2.80;100.00;96489.09;5095209;28;20494;-52
2022/04/01 01:10:10;;;;;;;11.10;6.15;;;;;;;2.74;100.00;96490.41;5074488;28;20036;-49
2022/04/01 01:12:56;;;;;;;8.85;5.47;;;;;;;2.93;100.00;96487.28;5074293;28;20395;-50
2022/04/01 01:15:41;;;;;;;9.85;6.57;;;;;;;2.64;100.00;96485.06;5073391;28;20044;-51
2022/04/01 01:18:26;;;;;;;11.05;6.38;;;;;;;2.69;100.00;96480.38;5074607;28;20051;-54
2022/04/01 01:21:11;;;;;;;9.93;6.45;;;;;;;2.71;100.00;96488.00;5073601;28;20058;-52
2022/04/01 01:24:06;;;;;;;9.27;6.35;;;;;;;2.64;100.00;96485.06;5075407;28;20053;-54
2022/04/01 01:27:21;;;;;;;9.95;6.38;;;;;;;2.55;100.00;96486.53;5073814;28;20100;-54
2022/04/01 01:30:35;;;;;;;8.07;5.82;;;;;;;2.61;100.00;96476.69;5064021;28;20391;-54
2022/04/01 01:33:25;;;;;;;9.90;6.72;;;;;;;2.65;100.00;96478.94;5073194;28;20036;-53
2022/04/01 01:36:12;;;;;;;7.93;6.07;;;;;;;2.35;100.00;96477.63;5072777;28;20456;-53
2022/04/01 01:39:00;;;;;;;10.75;6.75;;;;;;;2.43;100.00;96467.56;5073114;28;20128;-51
2022/04/01 01:41:46;;;;;;;10.95;6.55;;;;;;;2.41;100.00;96466.88;5073023;28;20051;-53
2022/04/01 01:44:31;;;;;;;12.95;7.68;;;;;;;2.52;100.00;96463.50;5073148;28;20185;-52
2022/04/01 01:47:16;;;;;;;11.23;7.07;;;;;;;2.50;100.00;96459.41;5073129;28;20117;-52
2022/04/01 01:56:07;;;;;;;9.23;6.38;;;;;;;2.33;100.00;96457.06;5072419;28;20412;-50
2022/04/01 01:58:55;;;;;;;11.27;6.85;;;;;;;2.37;100.00;96460.25;5072642;28;20083;-48
2022/04/01 02:01:41;;;;;;;10.10;6.57;;;;;;;2.36;100.00;96465.53;5072592;28;20434;-51
2022/04/01 02:04:26;;;;;;;10.15;6.88;;;;;;;2.54;100.00;96459.06;5079200;28;20040;-53
2022/04/01 02:07:11;;;;;;;10.27;6.88;;;;;;;2.33;100.00;96446.72;5093480;28;20032;-50
2022/04/01 02:09:56;;;;;;;10.48;6.70;;;;;;;2.27;100.00;96446.38;5093799;28;20069;-54
2022/04/01 02:12:51;;;;;;;10.07;6.57;;;;;;;2.17;100.00;96454.75;5093342;28;20064;-54
2022/04/01 02:15:39;;;;;;;9.25;6.45;;;;;;;2.27;100.00;96452.34;5079287;28;20062;-51
2022/04/01 02:18:29;;;;;;;10.60;5.90;;;;;;;2.36;100.00;96455.19;5064793;28;20056;-52
2022/04/01 02:21:16;;;;;;;9.77;6.22;;;;;;;2.32;100.00;96446.84;5078248;28;20456;-51
2022/04/01 02:24:01;;;;;;;9.40;6.22;;;;;;;2.32;100.00;96452.84;5092154;28;20437;-50
2022/04/01 02:26:47;;;;;;;10.63;6.28;;;;;;;2.37;100.00;96451.69;5092060;28;20059;-53
2022/04/01 02:29:33;;;;;;;12.25;7.10;;;;;;;2.64;100.00;96459.22;5092361;28;20040;-52
2022/04/01 02:32:53;;;;;;;11.50;7.10;;;;;;;2.45;100.00;96447.59;5093428;28;20040;-53
2022/04/01 02:36:06;;;;;;;9.65;6.80;;;;;;;2.50;100.00;96465.38;5092172;28;20055;-49
2022/04/01 02:39:03;;;;;;;8.38;6.55;;;;;;;2.25;100.00;96453.41;5077773;28;20623;-55
2022/04/01 02:41:48;;;;;;;10.02;5.32;;;;;;;2.53;100.00;96459.97;5092806;28;20040;-50
2022/04/01 02:44:33;;;;;;;9.73;6.47;;;;;;;2.44;100.00;96460.66;5077995;28;20124;-55
2022/04/01 02:47:20;;;;;;;9.93;6.53;;;;;;;2.32;100.00;96457.19;5091808;28;20050;-55
2022/04/01 02:50:06;;;;;;;10.25;6.28;;;;;;;2.44;100.00;96461.47;5091955;28;20047;-50
2022/04/01 02:52:51;;;;;;;11.20;6.50;;;;;;;2.20;100.00;96438.22;5091722;28;20430;-50
2022/04/01 02:55:37;;;;;;;7.28;4.70;;;;;;;2.42;100.00;96452.16;5091723;28;20043;-50
2022/04/01 02:58:30;;;;;;;12.95;7.03;;;;;;;2.03;100.00;96442.81;5091897;28;20093;-48
2022/04/01 03:01:41;;;;;;;10.70;7.18;;;;;;;1.93;100.00;96462.47;5087536;28;20073;-51
2022/04/01 03:04:26;;;;;;;12.68;8.25;;;;;;;1.78;100.00;96454.88;5088100;28;20067;-55
2022/04/01 03:07:14;;;;;;;11.32;7.00;;;;;;;1.78;100.00;96460.03;5088403;28;20039;-54
2022/04/01 03:10:00;;;;;;;11.63;7.13;;;;;;;2.00;100.00;96443.06;5090189;28;20051;-53
2022/04/01 03:12:51;;;;;;;13.02;7.25;;;;;;;1.88;100.00;96447.31;5072295;28;20158;-52
2022/04/01 03:15:58;;;;;;;11.23;6.57;;;;;;;2.03;100.00;96452.31;5089706;28;20052;-51
2022/04/01 03:19:08;;;;;;;12.98;7.90;;;;;;;1.92;100.00;96450.50;5091252;28;20047;-50
2022/04/01 03:21:54;;;;;;;10.75;7.20;;;;;;;1.91;100.00;96454.03;5091224;28;20040;-51
2022/04/01 03:24:39;;;;;;;8.35;5.75;;;;;;;2.01;100.00;96456.81;5092472;28;20066;-53
2022/04/01 03:27:23;;;;;;;8.65;6.18;;;;;;;2.06;100.00;96452.09;5090909;28;20063;-51
2022/04/01 03:30:09;;;;;;;9.73;6.57;;;;;;;1.89;100.00;96459.31;5091408;28;20059;-52
2022/04/01 03:32:55;;;;;;;10.15;5.90;;;;;;;1.99;100.00;96466.41;5091019;28;20036;-53
2022/04/01 03:35:41;;;;;;;10.18;6.50;;;;;;;1.80;100.00;96463.34;5091247;28;20044;-51
2022/04/01 03:38:26;;;;;;;8.45;5.97;;;;;;;2.02;100.00;96455.84;5077308;28;20040;-52
2022/04/01 03:41:11;;;;;;;10.23;6.78;;;;;;;1.82;100.00;96461.50;5091261;28;20445;-49
2022/04/01 03:44:00;;;;;;;8.15;5.07;;;;;;;1.90;100.00;96462.69;5063195;28;20476;-50
2022/04/01 03:46:52;;;;;;;9.18;5.85;;;;;;;2.04;100.00;96467.72;5091054;28;20070;-51
2022/04/01 03:49:49;;;;;;;9.82;5.38;;;;;;;2.26;100.00;96457.63;5091144;28;20055;-51
2022/04/01 03:52:36;;;;;;;9.85;6.65;;;;;;;2.09;100.00;96447.56;5090847;28;20036;-52
2022/04/01 03:55:26;;;;;;;9.63;6.47;;;;;;;1.71;100.00;96457.06;5092151;28;20093;-50
2022/04/01 03:58:35;;;;;;;10.38;5.72;;;;;;;2.02;100.00;96446.34;5058069;28;20158;-53
2022/04/01 04:01:39;;;;;;;9.18;6.45;;;;;;;1.68;100.00;96454.69;5084885;28;20044;-51
2022/04/01 04:04:24;;;;;;;9.55;5.80;;;;;;;1.86;100.00;96453.53;5077036;28;20046;-52
2022/04/01 04:07:10;;;;;;;10.75;6.95;;;;;;;1.82;100.00;96456.31;5076385;28;20442;-52
2022/04/01 04:10:02;;;;;;;9.35;6.20;;;;;;;2.02;100.00;96456.69;5090942;28;20058;-53
2022/04/01 04:12:49;;;;;;;10.00;5.68;;;;;;;2.04;100.00;96461.75;5097975;28;20131;-52
2022/04/01 04:16:04;;;;;;;10.25;6.28;;;;;;;2.01;100.00;96460.19;5090191;28;20052;-51
2022/04/01 04:18:57;;;;;;;9.70;5.80;;;;;;;1.96;100.00;96467.44;5090797;28;20075;-54
2022/04/01 04:22:11;;;;;;;8.77;5.57;;;;;;;2.01;100.00;96460.19;5090793;28;20047;-50
2022/04/01 04:25:10;;;;;;;10.07;6.07;;;;;;;2.21;100.00;96455.38;5091871;28;20102;-54
2022/04/01 04:27:59;;;;;;;7.55;5.00;;;;;;;2.07;100.00;96462.34;5093178;28;20186;-54
2022/04/01 04:30:52;;;;;;;8.32;5.88;;;;;;;2.21;100.00;96458.78;5094135;28;20097;-50
2022/04/01 04:33:46;;;;;;;11.02;5.45;;;;;;;1.90;100.00;96467.88;5094438;28;20547;-53
2022/04/01 04:36:41;;;;;;;10.73;6.03;;;;;;;1.70;100.00;96464.91;5094588;28;20067;-51
2022/04/01 04:39:32;;;;;;;11.38;6.30;;;;;;;1.78;100.00;96459.22;5094287;28;20115;-53
2022/04/01 04:42:18;;;;;;;7.60;5.22;;;;;;;1.87;100.00;96466.34;5094604;28;20051;-52
2022/04/01 04:45:05;;;;;;;8.38;5.82;;;;;;;1.90;100.00;96470.44;5094349;28;20048;-50
2022/04/01 04:47:54;;;;;;;8.35;5.53;;;;;;;1.93;100.00;96476.22;5079900;28;20108;-52
2022/04/01 04:50:45;;;;;;;11.93;6.38;;;;;;;3.01;100.00;96473.78;5094454;28;20048;-55
2022/04/01 04:53:33;;;;;;;8.03;5.20;;;;;;;2.19;100.00;96470.97;5094916;28;20142;-54
2022/04/01 04:56:18;;;;;;;8.57;5.35;;;;;;;2.20;100.00;96474.41;5093856;28;20067;-51
2022/04/01 04:59:05;;;;;;;8.95;5.82;;;;;;;1.97;100.00;96466.50;5079563;28;20040;-55
2022/04/01 05:02:09;;;;;;;9.38;5.10;;;;;;;1.80;100.00;96468.50;5065442;28;20119;-53
2022/04/01 05:05:26;;;;;;;8.27;5.32;;;;;;;2.02;100.00;96472.19;5094819;28;20612;-53
2022/04/01 05:08:51;;;;;;;7.20;5.18;;;;;;;1.91;100.00;96465.16;5094559;28;20442;-51
2022/04/01 05:12:06;;;;;;;9.05;5.47;;;;;;;2.16;100.00;96476.38;5094710;28;20403;-54
2022/04/01 05:15:19;;;;;;;8.57;5.60;;;;;;;1.98;100.00;96475.91;5080237;28;20052;-49
2022/04/01 05:18:24;;;;;;;9.63;6.40;;;;;;;1.89;100.00;96476.56;5091605;28;20047;-54
2022/04/01 05:21:18;;;;;;;8.95;5.45;;;;;;;1.95;100.00;96478.69;5093744;28;20044;-53
2022/04/01 05:24:07;;;;;;;7.85;4.90;;;;;;;2.03;100.00;96473.81;5093240;28;20087;-58
2022/04/01 05:26:57;;;;;;;9.27;5.20;;;;;;;2.11;100.00;96485.38;5092966;28;20121;-55
2022/04/01 05:30:12;;;;;;;;;;;;;;;2.07;100.00;96492.53;5094884;28;20093;-52
2022/04/01 05:33:27;;;;;;;6.85;4.53;;;;;;;2.18;100.00;96481.44;5092193;28;19924;-51
2022/04/01 05:36:12;;;;;;;6.80;4.90;;;;;;;1.93;100.00;96490.88;5089348;28;20040;-53
2022/04/01 05:38:57;;;;;;;8.38;4.60;;;;;;;1.77;100.00;96493.72;5078272;28;20055;-52
2022/04/01 05:41:45;;;;;;;8.73;5.35;;;;;;;2.06;100.00;96493.44;5092245;28;20473;-53
2022/04/01 05:44:30;;;;;;;6.78;4.65;;;;;;;2.02;100.00;96492.03;5078407;28;20048;-54
2022/04/01 05:47:20;;;;;;;10.80;5.78;;;;;;;2.07;100.00;96488.16;5092930;28;20440;-50
2022/04/01 05:50:06;;;;;;;8.02;4.85;;;;;;;1.67;100.00;96496.94;5092291;28;20051;-53
2022/04/01 05:52:53;;;;;;;7.43;4.55;;;;;;;1.81;100.00;96500.34;5092742;28;20079;-52
2022/04/01 05:55:39;;;;;;;8.07;5.00;;;;;;;1.92;100.00;96499.59;5093833;28;20047;-51
2022/04/01 05:58:24;;;;;;;8.20;5.00;;;;;;;2.07;100.00;96501.09;5093060;28;20071;-54
2022/04/01 06:01:15;;;;;;;7.20;4.88;;;;;;;2.01;100.00;96498.94;5092800;28;20108;-52
2022/04/01 06:04:16;;;;;;;;;;;;;;;2.18;100.00;96515.00;5093113;28;20064;-53
2022/04/01 06:07:11;;;;;;;7.18;4.80;;;;;;;2.06;100.00;96514.94;5107138;28;20064;-50
2022/04/01 06:10:09;;;;;;;7.47;5.05;;;;;;;2.11;100.00;96514.63;5092513;28;20044;-54
2022/04/01 06:13:18;;;;;;;10.23;4.57;;;;;;;2.26;100.00;96514.47;5070450;28;20470;-52
2022/04/01 06:16:41;;;;;;;7.15;4.85;;;;;;;3.52;94.21;96509.72;5092360;28;20046;-62
2022/04/01 06:19:56;;;;;;;6.50;4.53;;;;;;;2.34;98.50;96502.66;5071124;28;20056;-60
2022/04/01 06:23:07;;;;;;;8.27;5.88;;;;;;;2.17;100.00;96503.03;5071424;28;20049;-57
2022/04/01 06:26:00;;;;;;;7.15;4.93;;;;;;;2.30;100.00;96511.56;5087592;28;20047;-58
2022/04/01 06:29:00;;;;;;;9.13;5.88;;;;;;;1.96;100.00;96508.75;5091396;28;20040;-59
2022/04/01 06:31:53;;;;;;;7.78;5.28;;;;;;;1.96;100.00;96503.59;5076871;28;20048;-60
2022/04/01 06:34:57;;;;;;;8.77;5.65;;;;;;;1.75;100.00;96498.97;5091522;28;20052;-60
2022/04/01 06:38:41;;;;;;;8.27;4.50;;;;;;;2.40;100.00;96498.81;5091261;28;20411;-57
2022/04/01 06:41:54;;;;;;;8.32;4.93;;;;;;;2.40;98.51;96506.56;5090454;28;20062;-60
2022/04/01 06:44:59;;;;;;;8.00;5.38;;;;;;;2.54;99.67;96504.75;5090390;28;20039;-59
2022/04/01 06:48:03;;;;;;;6.45;4.53;;;;;;;2.67;98.75;96513.28;5089600;28;20101;-60
2022/04/01 06:50:57;;;;;;;7.13;5.22;;;;;;;2.50;96.68;96509.31;5078088;28;20036;-60
2022/04/01 06:54:00;;;;;;;8.27;5.30;;;;;;;2.41;99.40;96520.31;5091647;28;20044;-60
2022/04/01 06:57:08;;;;;;;6.00;4.50;;;;;;;2.13;100.00;96517.94;5078132;28;20423;-60
2022/04/01 07:00:16;;;;;;;7.45;5.30;;;;;;;2.33;97.80;96500.19;5092776;28;20036;-60
2022/04/01 07:03:01;;;;;;;7.30;5.28;;;;;;;2.26;99.03;96504.97;5092552;28;20044;-60
2022/04/01 07:05:47;;;;;;;8.07;5.40;;;;;;;2.60;96.96;96501.72;5091383;28;20403;-60
2022/04/01 07:08:31;;;;;;;6.75;5.07;;;;;;;2.39;97.53;96514.44;5092247;28;20044;-59
2022/04/01 07:11:16;;;;;;;6.82;5.25;;;;;;;2.54;97.14;96526.28;5092658;28;20498;-59
2022/04/01 07:14:00;;;;;;;7.15;5.15;;;;;;;2.83;95.60;96530.25;5091427;28;20040;-59
2022/04/01 07:16:45;;;;;;;7.45;5.63;;;;;;;2.90;94.17;96534.06;5092510;28;20052;-59
2022/04/01 07:19:30;;;;;;;6.60;4.80;;;;;;;3.01;94.43;96522.94;5092439;28;20040;-59
2022/04/01 07:22:15;;;;;;;7.03;4.53;;;;;;;2.70;97.40;96527.75;5092234;28;20555;-59
2022/04/01 07:25:00;;;;;;;7.40;5.40;;;;;;;3.06;95.00;96525.16;5091137;28;20406;-59
2022/04/01 07:27:44;;;;;;;7.90;4.72;;;;;;;2.58;95.04;96521.69;5091164;28;20048;-59
2022/04/01 07:30:29;;;;;;;8.27;4.47;;;;;;;2.46;95.98;96519.03;5091215;28;20123;-59
2022/04/01 07:33:14;;;;;;;7.85;5.07;;;;;;;2.71;95.60;96527.63;5092389;28;20062;-59
2022/04/01 07:35:58;;;;;;;7.65;4.72;;;;;;;2.88;95.95;96535.09;5091172;28;20442;-59
2022/04/01 07:38:44;;;;;;;7.75;4.80;;;;;;;2.47;94.92;96540.56;5092292;28;20044;-59
2022/04/01 07:41:34;;;;;;;7.32;5.05;;;;;;;2.70;94.62;96538.09;5091314;28;20113;-60
2022/04/01 07:44:19;;;;;;;7.78;4.70;;;;;;;2.51;94.92;96544.59;5092250;28;20055;-60
2022/04/01 07:47:09;;;;;;;6.80;4.65;;;;;;;2.67;95.89;96544.31;5092042;28;20044;-60
2022/04/01 07:49:53;;;;;;;7.35;5.22;;;;;;;3.15;93.40;96552.16;5092426;28;20044;-59
2022/04/01 07:52:40;;;;;;;6.95;5.22;;;;;;;3.00;91.70;96554.91;5091259;28;20371;-59
2022/04/01 07:55:25;;;;;;;7.70;5.18;;;;;;;3.13;92.31;96559.19;5091781;28;20139;-59
2022/04/01 07:58:10;;;;;;;6.63;4.47;;;;;;;3.53;92.00;96560.56;5092160;28;20063;-59
2022/04/01 08:00:54;;;;;;;5.85;4.53;;;;;;;2.89;91.48;96552.28;5096061;28;20073;-59
2022/04/01 08:03:44;;;;;;;5.53;4.53;;;;;;;3.29;91.75;96553.69;5095846;28;20447;-59
2022/04/01 08:06:30;;;;;;;6.05;4.15;;;;;;;3.69;91.64;96552.47;5095725;28;20040;-59
2022/04/01 08:09:14;;;;;;;6.78;4.72;;;;;;;3.51;90.48;96552.91;5095258;28;20036;-60
2022/04/01 08:12:01;;;;;;;5.32;4.28;;;;;;;3.74;89.08;96552.94;5079802;28;20101;-60
2022/04/01 08:14:46;;;;;;;6.70;5.22;;;;;;;4.10;87.85;96559.81;5079497;28;20499;-59
2022/04/01 08:17:31;;;;;;;8.45;5.10;;;;;;;3.29;90.35;96551.13;5095963;28;20063;-60
2022/04/01 08:20:16;;;;;;;6.18;4.57;;;;;;;3.80;89.42;96556.84;5094439;28;20115;-60
2022/04/01 08:23:02;;;;;;;7.53;4.63;;;;;;;4.13;87.16;96552.59;5094505;28;20483;-60
2022/04/01 08:25:47;;;;;;;8.45;4.85;;;;;;;3.63;88.33;96552.94;5092010;28;20060;-61
2022/04/01 08:28:32;;;;;;;6.15;4.32;;;;;;;3.64;89.57;96555.41;5093890;28;20130;-60
2022/04/01 08:31:16;;;;;;;7.72;5.25;;;;;;;3.83;87.54;96554.03;5092265;28;20056;-59
2022/04/01 08:34:01;;;;;;;6.85;4.97;;;;;;;3.92;90.38;96557.66;5093373;28;20036;-58
2022/04/01 08:36:46;;;;;;;6.82;4.82;;;;;;;3.88;89.01;96566.63;5092534;28;20097;-58
2022/04/01 08:39:32;;;;;;;7.45;5.32;;;;;;;3.26;89.18;96567.72;5095112;28;20040;-57
2022/04/01 08:42:17;;;;;;;6.32;4.82;;;;;;;3.50;89.70;96577.16;5093872;28;20136;-56
2022/04/01 08:45:06;;;;;;;7.13;4.55;;;;;;;4.85;96.42;96572.97;5095147;28;20093;-61
2022/04/01 08:47:50;;;;;;;6.25;4.78;;;;;;;4.99;85.67;96573.63;5093636;28;20041;-64
2022/04/01 08:50:36;;;;;;;6.30;4.85;;;;;;;4.56;86.05;96578.69;5094872;28;20494;-64
2022/04/01 08:53:21;;;;;;;8.27;4.70;;;;;;;3.98;91.73;96580.53;5073045;28;20044;-57
2022/04/01 08:56:06;;;;;;;10.50;5.60;;;;;;;4.35;90.68;96576.84;5091012;28;20043;-52
2022/04/01 08:58:51;;;;;;;5.25;4.10;;;;;;;5.45;87.94;96576.81;5092607;28;20471;-48
2022/04/01 09:01:43;;;;;;;6.65;5.15;;;;;;;4.92;81.94;96574.13;5092562;28;20048;-57
2022/04/01 09:04:28;;;;;;;6.20;5.40;;;;;;;4.99;84.25;96591.81;5094093;28;20055;-47
2022/04/01 09:07:15;;;;;;;7.15;5.68;;;;;;;4.62;82.52;96593.78;5094705;28;20471;-60
2022/04/01 09:10:03;;;;;;;6.45;4.95;;;;;;;4.49;83.29;96587.94;5092057;28;20143;-62
2022/04/01 09:12:51;;;;;;;25.15;9.02;;;;;;;4.68;84.72;96576.91;5093290;28;20057;-50
2022/04/01 09:15:41;;;;;;;36.60;10.18;;;;;;;5.64;88.38;96593.50;5093516;28;20495;-46
2022/04/01 09:18:35;;;;;;;8.18;5.22;;;;;;;5.41;82.14;96588.44;5092025;28;20135;-46
2022/04/01 09:21:26;;;;;;;14.13;6.07;;;;;;;6.53;82.69;96602.53;5093628;28;20044;-44
2022/04/01 09:24:11;;;;;;;6.72;5.28;;;;;;;5.53;76.38;96607.38;5093176;28;20531;-48
2022/04/01 09:26:56;;;;;;;6.40;4.75;;;;;;;5.13;80.51;96604.50;5093503;28;20563;-47
2022/04/01 09:29:41;;;;;;;12.25;5.68;;;;;;;5.35;82.05;96600.16;5093522;28;20048;-47
2022/04/01 09:32:36;;;;;;;7.55;5.05;;;;;;;5.13;79.63;96598.47;5094040;28;20036;-46
2022/04/01 09:35:23;;;;;;;11.02;5.13;;;;;;;5.39;81.26;96598.09;5094695;28;20109;-48
2022/04/01 09:38:09;;;;;;;6.70;4.70;;;;;;;5.51;77.86;96607.50;5094285;28;20048;-56
2022/04/01 09:40:54;;;;;;;7.10;4.90;;;;;;;5.14;78.42;96600.94;5094395;28;20097;-55
2022/04/01 09:43:39;;;;;;;6.80;4.68;;;;;;;5.05;79.77;96599.91;5094281;28;20032;-55
2022/04/01 09:46:26;;;;;;;6.20;4.72;;;;;;;5.16;78.04;96598.22;5093687;28;20051;-55
2022/04/01 09:49:12;;;;;;;6.63;4.60;;;;;;;5.32;80.66;96602.16;5093150;28;20044;-54
2022/04/01 09:51:58;;;;;;;7.40;4.85;;;;;;;5.39;78.78;96609.31;5093137;28;20039;-56
2022/04/01 09:54:50;;;;;;;7.68;4.47;;;;;;;6.65;76.90;96615.44;5092919;28;20478;-55
2022/04/01 09:57:36;;;;;;;5.80;4.97;;;;;;;6.30;72.60;96617.50;5091947;28;20475;-54
2022/04/01 10:00:20;;;;;;;6.32;4.55;;;;;;;6.39;73.74;96613.31;5091759;28;20044;-54
2022/04/01 10:03:07;;;;;;;6.35;4.88;;;;;;;5.28;76.76;96625.78;5092456;28;20062;-57
2022/04/01 10:05:53;;;;;;;9.05;4.72;;;;;;;6.63;74.57;96619.94;5093581;28;20067;-55
2022/04/01 10:08:57;;;;;;;6.75;5.38;;;;;;;5.46;74.93;96622.63;5092605;28;20044;-55
2022/04/01 10:11:43;;;;;;;5.70;4.70;;;;;;;5.73;75.15;96621.31;5093341;28;20044;-57
2022/04/01 10:14:28;;;;;;;6.57;4.75;;;;;;;5.25;77.21;96625.22;5093752;28;20040;-56
2022/04/01 10:17:14;;;;;;;6.25;4.97;;;;;;;5.28;76.54;96619.75;5092440;28;20044;-59
2022/04/01 10:20:02;;;;;;;6.43;5.35;;;;;;;5.29;76.45;96631.78;5092435;28;20036;-54
2022/04/01 10:22:48;;;;;;;6.68;4.95;;;;;;;5.17;77.49;96631.03;5093336;28;20040;-55
2022/04/01 10:25:48;;;;;;;6.70;5.03;;;;;;;5.46;76.40;96632.19;5093080;28;20059;-53
2022/04/01 10:28:33;;;;;;;6.03;4.78;;;;;;;5.57;76.17;96645.13;5091952;28;20040;-53
2022/04/01 10:31:19;;;;;;;7.20;5.47;;;;;;;6.39;74.38;96649.72;5093441;28;20483;-50
2022/04/01 10:34:22;;;;;;;8.25;4.90;;;;;;;5.97;74.31;96648.00;5093082;28;20044;-54
2022/04/01 10:37:14;;;;;;;6.22;4.20;;;;;;;6.21;77.85;96652.09;5092166;28;20486;-55
2022/04/01 10:40:17;;;;;;;6.13;4.82;;;;;;;6.04;73.88;96642.16;5093002;28;20130;-57
2022/04/01 10:43:10;;;;;;;6.65;4.72;;;;;;;6.30;75.52;96646.13;5091959;28;20051;-54
2022/04/01 10:46:16;;;;;;;6.82;5.05;;;;;;;6.32;72.31;96639.00;5092802;28;20456;-59
2022/04/01 10:52:19;;;;;;;5.65;4.55;;;;;;;6.38;70.54;96653.28;5092996;28;20044;-55
2022/04/01 10:55:08;;;;;;;6.53;4.75;;;;;;;6.59;71.70;96657.59;5092942;28;20044;-54
2022/04/01 10:58:07;;;;;;;7.15;5.15;;;;;;;6.86;69.97;96661.38;5092777;28;20483;-56
2022/04/01 11:00:52;;;;;;;6.57;4.60;;;;;;;6.73;70.50;96657.22;5091491;28;20391;-57
2022/04/01 11:03:37;;;;;;;7.20;4.88;;;;;;;7.15;69.52;96669.25;5091676;28;20045;-56
2022/04/01 11:06:23;;;;;;;5.53;4.88;;;;;;;6.29;71.42;96673.09;5092571;28;20447;-55
2022/04/01 11:09:08;;;;;;;7.38;5.75;;;;;;;5.43;73.93;96664.44;5092272;28;20051;-50
2022/04/01 11:12:15;;;;;;;6.40;4.63;;;;;;;5.92;73.01;96663.97;5089798;28;20066;-54
2022/04/01 11:15:09;;;;;;;7.40;6.07;;;;;;;5.77;71.99;96668.66;5091851;28;20107;-56
2022/04/01 11:17:57;;;;;;;7.10;5.30;;;;;;;6.83;70.24;96670.28;5092208;28;20117;-55
2022/04/01 11:20:55;;;;;;;7.68;5.68;;;;;;;5.75;71.67;96657.56;5091033;28;20056;-55
2022/04/01 11:23:40;;;;;;;6.53;5.20;;;;;;;5.67;72.88;96668.59;5092141;28;20048;-53
2022/04/01 11:26:40;;;;;;;7.15;5.18;;;;;;;5.34;73.63;96673.00;5092467;28;20391;-56
2022/04/01 11:29:25;;;;;;;7.15;5.53;;;;;;;5.40;73.95;96677.69;5077557;28;20053;-55
2022/04/01 11:32:10;;;;;;;8.68;4.45;;;;;;;6.31;77.70;96671.19;5091933;28;20513;-56
2022/04/01 11:34:56;;;;;;;7.00;5.28;;;;;;;6.21;70.35;96678.94;5089873;28;20047;-54
2022/04/01 11:37:43;;;;;;;7.43;4.95;;;;;;;6.28;70.33;96680.06;5092095;28;20101;-54
2022/04/01 11:40:33;;;;;;;6.22;5.43;;;;;;;5.20;73.15;96674.91;5092017;28;20384;-55
2022/04/01 11:43:19;;;;;;;8.27;5.60;;;;;;;5.49;72.38;96676.09;5077531;28;20528;-57
2022/04/01 11:46:06;;;;;;;6.53;5.60;;;;;;;5.02;74.72;96683.22;5090129;28;20493;-54
2022/04/01 11:48:51;;;;;;;8.20;6.53;;;;;;;4.97;74.54;96687.94;5071747;28;20130;-57
2022/04/01 11:51:38;;;;;;;7.30;5.72;;;;;;;4.73;75.79;96688.94;5091564;28;20039;-57
2022/04/01 11:54:25;;;;;;;8.70;5.68;;;;;;;4.93;75.73;96697.72;5092637;28;20044;-55
2022/04/01 11:57:10;;;;;;;6.97;5.43;;;;;;;4.71;76.07;96703.78;5090838;28;20071;-58
2022/04/01 12:00:00;;;;;;;6.75;5.35;;;;;;;5.00;74.95;96677.31;5074725;28;20136;-56
2022/04/01 12:02:47;;;;;;;7.38;5.32;;;;;;;5.02;75.54;96696.19;5089298;28;20414;-59
2022/04/01 12:05:32;;;;;;;7.72;5.38;;;;;;;4.96;75.03;96698.44;5075444;28;20040;-59
2022/04/01 12:11:20;;;;;;;6.45;5.55;;;;;;;4.70;76.70;96698.72;5090392;28;20384;-57
2022/04/01 12:14:05;;;;;;;8.38;6.25;;;;;;;4.64;75.96;96698.25;5086559;28;20402;-60
2022/04/01 12:16:50;;;;;;;6.45;5.30;;;;;;;4.92;75.04;96705.63;5090872;28;20132;-60
2022/04/01 12:19:35;;;;;;;8.98;6.20;;;;;;;4.78;75.35;96698.94;5076590;28;20052;-58
2022/04/01 12:22:23;;;;;;;7.20;6.43;;;;;;;4.40;76.51;96700.94;5075788;28;20399;-61
2022/04/01 12:25:08;;;;;;;6.80;5.38;;;;;;;4.75;75.30;96705.19;5089862;28;20040;-58
2022/04/01 12:28:02;;;;;;;7.20;5.80;;;;;;;4.96;74.42;96708.84;5091652;28;20387;-59
2022/04/01 12:30:50;;;;;;;7.80;5.70;;;;;;;4.88;73.98;96702.47;5091647;28;20044;-58
2022/04/01 12:33:34;;;;;;;7.78;5.85;;;;;;;4.83;74.56;96693.41;5090698;28;20450;-60
2022/04/01 12:36:34;;;;;;;8.50;6.07;;;;;;;4.82;74.73;96702.94;5091646;28;20051;-59
2022/04/01 12:39:19;;;;;;;8.02;5.90;;;;;;;4.82;74.55;96708.13;5091069;28;20040;-59
2022/04/01 12:42:10;;;;;;;7.28;6.10;;;;;;;4.96;74.02;96706.22;5090692;28;20113;-58
2022/04/01 12:44:55;;;;;;;7.30;5.30;;;;;;;4.60;74.89;96715.00;5090577;28;20048;-60
2022/04/01 12:47:40;;;;;;;6.85;5.57;;;;;;;4.79;74.77;96704.00;5094258;28;20097;-55
2022/04/01 12:50:35;;;;;;;7.43;5.78;;;;;;;5.23;73.40;96694.59;5079889;28;20124;-60
2022/04/01 12:53:21;;;;;;;9.77;6.40;;;;;;;4.91;74.44;96691.03;5093465;28;20044;-60
2022/04/01 12:56:21;;;;;;;8.32;6.13;;;;;;;4.81;74.84;96699.50;5094191;28;20043;-59
2022/04/01 12:59:07;;;;;;;7.65;5.80;;;;;;;4.75;75.40;96700.00;5093368;28;20505;-59
2022/04/01 13:02:14;;;;;;;7.30;5.70;;;;;;;4.88;74.31;96696.47;5093492;28;20063;-64
2022/04/01 13:04:59;;;;;;;5.80;4.85;;;;;;;5.07;73.66;96710.56;5093669;28;20048;-63
2022/04/01 13:07:45;;;;;;;8.27;6.07;;;;;;;5.23;72.53;96705.00;5087582;28;20548;-59
2022/04/01 13:10:30;;;;;;;6.90;5.53;;;;;;;5.37;72.14;96709.91;5092894;28;21570;-59
2022/04/01 13:13:20;;;;;;;5.82;5.00;;;;;;;5.16;71.62;96705.47;5078898;28;20040;-58
2022/04/01 13:16:05;;;;;;;6.97;5.00;;;;;;;5.32;71.72;96693.06;5093053;28;20044;-59
2022/04/01 13:18:49;;;;;;;7.10;5.07;;;;;;;5.01;73.02;96709.28;5072594;28;20434;-59
2022/04/01 13:21:34;;;;;;;7.43;5.43;;;;;;;5.01;72.97;96696.31;5072795;28;20355;-59
2022/04/01 13:24:27;;;;;;;6.68;5.07;;;;;;;5.55;72.40;96702.41;5072781;28;20044;-58
2022/04/01 13:27:19;;;;;;;6.00;4.90;;;;;;;5.86;69.96;96711.25;5073034;28;20055;-59
2022/04/01 13:30:05;;;;;;;5.97;4.68;;;;;;;5.60;70.96;96701.22;5071840;28;20428;-58
2022/04/01 13:32:51;;;;;;;6.97;5.25;;;;;;;5.07;71.52;96707.97;5091395;28;20483;-58
2022/04/01 13:35:36;;;;;;;6.00;4.93;;;;;;;5.15;71.82;96700.41;5094738;28;20040;-60
2022/04/01 13:38:21;;;;;;;6.20;4.88;;;;;;;4.90;72.93;96708.34;5079260;28;20048;-59